Latest Coastal Weather Observations for Gold Coast Seaway

IDQ60701

Issued at 8:01 am EST Saturday 28 May 2016 (issued every 10 minutes, with the page automatically refreshed every 10 minutes)

About coastal observations | Map of coastal stations | Coastal observations for QLD | Marine services | Other Formats
Station Details ID: 040764 Name: GOLD COAST SEAWAY Lat: -27.94 Lon: 153.43 Height: 2.98 m
Data from the previous 72 hours. | See also: Recent months at Gold Coast Seaway
Date/Time
EST
Temp

°C
Wind Pressure Rain
since 9am
mm
Weather Cloud Vis
km
Sea
Height
m
Swell
Dir
 
Speed
knots
Gust
knots
hPa Trend Height
m
Period
s
Dir
28/08:00am 16.0 WNW 10 13 1012.6 - 0.0 - - - - - - -
28/07:30am 15.0 WNW 10 12 1012.3 - 0.0 - - - - - - -
28/07:00am 14.3 WNW 10 12 1012.1 - 0.0 - - - - - - -
28/06:30am 14.3 WNW 13 15 1011.7 - 0.0 - - - - - - -
28/06:00am 14.3 WNW 12 15 1011.4 - 0.0 - - - - - - -
28/05:30am 14.8 NW 15 18 1011.2 - 0.0 - - - - - - -
28/05:00am 15.0 NW 15 17 1010.9 - 0.0 - - - - - - -
28/04:30am 15.4 NW 16 18 1011.0 - 0.0 - - - - - - -
28/04:00am 15.8 NW 11 14 1011.0 - 0.0 - - - - - - -
28/03:30am 15.9 NW 11 14 1010.6 - 0.0 - - - - - - -
28/03:00am 16.3 NW 14 16 1010.4 - 0.0 - - - - - - -
28/02:30am 16.4 WNW 9 11 1010.3 - 0.0 - - - - - - -
28/02:00am 15.9 WNW 6 8 1010.5 - 0.0 - - - - - - -
28/01:30am 16.7 WNW 5 8 1010.6 - 0.0 - - - - - - -
28/01:00am 17.3 W 11 15 1009.8 - 0.0 - - - - - - -
28/12:30am 17.4 W 12 17 1010.0 - 0.0 - - - - - - -
28/12:00am 17.4 W 12 17 1009.9 - 0.0 - - - - - - -
 
Date/Time
EST
Temp

°C
Wind Pressure Rain
since 9am
mm
Weather Cloud Vis
km
Sea
Height
m
Swell
Dir
 
Speed
knots
Gust
knots
hPa Trend Height
m
Period
s
Dir
27/11:30pm 17.4 W 11 18 1010.1 - 0.0 - - - - - - -
27/11:00pm 17.9 WNW 16 20 1010.0 - 0.0 - - - - - - -
27/10:30pm 18.1 WNW 17 21 1009.7 - 0.0 - - - - - - -
27/10:00pm 18.6 WNW 21 27 1009.2 - 0.0 - - - - - - -
27/09:30pm 18.9 WNW 18 23 1009.2 - 0.0 - - - - - - -
27/09:00pm 19.4 WNW 20 26 1009.3 - 0.0 - - - - - - -
27/08:30pm 19.7 W 18 22 1009.2 - 0.0 - - - - - - -
27/08:00pm 20.0 WNW 14 18 1009.1 - 0.0 - - - - - - -
27/07:30pm 20.2 WNW 17 24 1008.9 - 0.0 - - - - - - -
27/07:02pm 20.7 WNW 17 27 1008.6 - 0.0 - - - - - - -
27/07:00pm 20.8 WNW 18 27 1008.5 - 0.0 - - - - - - -
27/06:30pm 21.2 WNW 17 21 1007.7 - 0.0 - - - - - - -
27/06:00pm 21.6 W 14 18 1007.5 - 0.0 - - - - - - -
27/05:30pm 22.2 W 13 21 1007.2 - 0.0 - - - - - - -
27/05:00pm 22.7 WNW 16 19 1007.0 - 0.0 - - - - - - -
27/04:30pm 23.5 W 19 27 1006.3 - 0.0 - - - - - - -
27/04:21pm 23.7 W 17 27 1006.1 - 0.0 - - - - - - -
27/04:00pm 24.0 W 22 29 1005.9 - 0.0 - - - - - - -
27/03:30pm 24.6 W 17 27 1005.4 - 0.0 - - - - - - -
27/03:12pm 24.3 W 19 29 1005.2 - 0.0 - - - - - - -
27/03:00pm 24.8 W 20 27 1005.4 - 0.0 - - - - - - -
27/02:30pm 25.1 WNW 22 33 1005.2 - 0.0 - - - - - - -
27/02:22pm 24.9 W 20 33 1005.1 - 0.0 - - - - - - -
27/02:00pm 25.2 W 21 28 1005.2 - 0.0 - - - - - - -
27/01:30pm 24.4 W 21 26 1005.3 - 0.0 - - - - - - -
27/01:00pm 23.4 W 20 30 1005.7 - 0.0 - - - - - - -
27/12:43pm 23.8 W 18 32 1005.9 - 0.0 - - - - - - -
27/12:30pm 24.7 W 18 26 1006.1 - 0.0 - - - - - - -
27/12:28pm 24.5 W 19 29 1006.1 - 0.0 - - - - - - -
27/12:00pm 23.2 W 20 29 1006.2 - 0.0 - - - - - - -
27/11:50am 23.7 WNW 20 32 1006.4 - 0.0 - - - - - - -
27/11:30am 24.0 WNW 17 21 1006.6 - 0.0 - - - - - - -
27/11:00am 23.1 WNW 14 18 1007.1 - 0.0 - - - - - - -
27/10:30am 23.1 NW 16 20 1007.6 - 0.0 - - - - - - -
27/10:00am 22.2 W 15 21 1008.1 - 0.0 - - - - - - -
27/09:30am 22.3 WNW 15 19 1008.1 - 0.0 - - - - - - -
27/09:00am 22.2 NW 16 20 1007.9 - 0.0 - - - - - - -
27/08:30am 21.3 NW 15 19 1007.6 - 0.0 - - - - - - -
27/08:00am 20.7 NW 17 19 1007.5 - 0.0 - - - - - - -
27/07:30am 20.2 NW 17 20 1007.1 - 0.0 - - - - - - -
27/07:00am 20.1 NW 18 19 1006.8 - 0.0 - - - - - - -
27/06:30am 20.3 NW 17 21 1006.5 - 0.0 - - - - - - -
27/06:00am 20.4 WNW 16 18 1006.3 - 0.0 - - - - - - -
27/05:30am 20.3 NW 16 19 1005.8 - 0.0 - - - - - - -
27/05:00am 21.0 NW 15 18 1005.3 - 0.0 - - - - - - -
27/04:30am 21.2 WNW 12 15 1005.6 - 0.0 - - - - - - -
27/04:00am 21.8 WNW 14 17 1005.9 - 0.0 - - - - - - -
27/03:30am 22.3 NW 15 18 1005.9 - 0.0 - - - - - - -
27/03:00am 22.0 NW 16 19 1005.5 - 0.0 - - - - - - -
27/02:30am 21.5 NW 15 18 1005.4 - 0.0 - - - - - - -
27/02:00am 21.4 NW 16 18 1005.5 - 0.0 - - - - - - -
27/01:30am 20.4 NNW 8 10 1006.0 - 0.0 - - - - - - -
27/01:00am 19.9 N 5 7 1006.0 - 0.0 - - - - - - -
27/12:30am 20.4 N 5 6 1006.4 - 0.0 - - - - - - -
27/12:00am 21.2 NW 7 8 1007.1 - 0.0 - - - - - - -
 
Date/Time
EST
Temp

°C
Wind Pressure Rain
since 9am
mm
Weather Cloud Vis
km
Sea
Height
m
Swell
Dir
 
Speed
knots
Gust
knots
hPa Trend Height
m
Period
s
Dir
26/11:30pm 21.5 WNW 9 11 1007.4 - 0.0 - - - - - - -
26/11:00pm 21.6 W 9 13 1007.8 - 0.0 - - - - - - -
26/10:30pm 22.2 NW 12 17 1008.0 - 0.0 - - - - - - -
26/10:00pm 22.3 NNW 13 19 1006.5 - 0.0 - - - - - - -
26/09:30pm 22.5 NNW 15 22 1006.7 - 0.0 - - - - - - -
26/09:00pm 22.8 NNW 17 28 1006.7 - 0.0 - - - - - - -
26/08:53pm 22.8 NNW 18 28 1006.4 - 0.0 - - - - - - -
26/08:30pm 23.0 NNW 16 23 1006.7 - 0.0 - - - - - - -
26/08:00pm 23.3 NNW 14 19 1007.1 - 0.0 - - - - - - -
26/07:30pm 23.4 NNW 13 22 1006.9 - 0.0 - - - - - - -
26/07:00pm 23.5 NNW 12 18 1007.2 - 0.0 - - - - - - -
26/06:30pm 23.0 NNW 8 10 1007.3 - 0.0 - - - - - - -
26/06:00pm 22.6 N 7 10 1007.2 - 0.0 - - - - - - -
26/05:30pm 22.5 NW 7 9 1007.3 - 0.0 - - - - - - -
26/05:00pm 22.7 NNW 6 8 1007.0 - 0.0 - - - - - - -
26/04:30pm 23.5 NNW 6 8 1007.2 - 0.0 - - - - - - -
26/04:00pm 24.6 NNW 8 11 1007.4 - 0.0 - - - - - - -
26/03:30pm 24.9 N 12 17 1007.4 - 0.0 - - - - - - -
26/03:00pm 24.5 N 16 20 1007.5 - 0.0 - - - - - - -
26/02:30pm 23.4 N 14 18 1008.3 - 0.0 - - - - - - -
26/02:00pm 23.6 NNW 11 15 1008.5 - 0.0 - - - - - - -
26/01:30pm 24.7 N 14 19 1008.9 - 0.0 - - - - - - -
26/01:00pm 24.2 N 15 19 1009.5 - 0.0 - - - - - - -
26/12:30pm 24.9 N 14 17 1010.2 - 0.0 - - - - - - -
26/12:00pm 23.7 NNW 10 14 1011.1 - 0.0 - - - - - - -
26/11:30am 23.2 N 11 14 1012.1 - 0.0 - - - - - - -
26/11:00am 21.9 N 10 14 1013.0 - 0.0 - - - - - - -
26/10:30am 21.9 N 10 14 1013.7 - 0.0 - - - - - - -
26/10:00am 21.4 N 11 14 1014.2 - 0.0 - - - - - - -
26/09:30am 20.4 NNW 9 11 1014.7 - 0.0 - - - - - - -
26/09:00am 19.2 NW 8 10 1015.0 - 0.0 - - - - - - -
26/08:30am 17.5 NNW 8 9 1015.1 - 0.0 - - - - - - -
26/08:00am 16.1 NNW 8 10 1015.0 - 0.0 - - - - - - -
26/07:30am 14.3 NNW 5 7 1015.0 - 0.0 - - - - - - -
26/07:00am 13.2 NNW 8 10 1015.0 - 0.0 - - - - - - -
26/06:30am 13.5 NW 7 9 1014.8 - 0.0 - - - - - - -
26/06:00am 14.5 NW 8 9 1015.0 - 0.0 - - - - - - -
26/05:30am 14.9 NW 7 9 1014.8 - 0.0 - - - - - - -
26/05:00am 13.8 NW 8 9 1014.6 - 0.0 - - - - - - -
26/04:30am 14.4 NW 8 9 1014.5 - 0.0 - - - - - - -
26/04:00am 14.7 NW 7 8 1014.7 - 0.0 - - - - - - -
26/03:30am 13.0 W 6 7 1014.8 - 0.0 - - - - - - -
26/03:00am 12.3 CALM 0 0 1015.2 - 0.0 - - - - - - -
26/02:30am 13.7 W 6 6 1015.4 - 0.0 - - - - - - -
26/02:00am 13.7 W 6 7 1015.7 - 0.0 - - - - - - -
26/01:30am 14.6 WSW 6 7 1016.0 - 0.0 - - - - - - -
26/01:00am 14.7 SW 6 7 1016.0 - 0.0 - - - - - - -
26/12:30am 15.7 WNW 7 9 1016.3 - 0.0 - - - - - - -
26/12:00am 14.7 W 5 7 1016.7 - 0.0 - - - - - - -
 
Date/Time
EST
Temp

°C
Wind Pressure Rain
since 9am
mm
Weather Cloud Vis
km
Sea
Height
m
Swell
Dir
 
Speed
knots
Gust
knots
hPa Trend Height
m
Period
s
Dir
25/11:30pm 15.3 W 7 8 1016.9 - 0.0 - - - - - - -
25/11:00pm 16.0 WNW 8 10 1017.0 - 0.0 - - - - - - -
25/10:30pm 15.4 WNW 7 7 1017.0 - 0.0 - - - - - - -
25/10:00pm 15.6 W 6 7 1017.1 - 0.0 - - - - - - -
25/09:30pm 15.6 W 6 6 1016.9 - 0.0 - - - - - - -
25/09:00pm 15.1 WNW 5 6 1016.8 - 0.0 - - - - - - -
25/08:30pm 15.6 WNW 5 6 1016.9 - 0.0 - - - - - - -
25/08:00pm 15.8 WNW 5 6 1016.9 - 0.0 - - - - - - -
25/07:30pm 15.5 NNW 5 6 1016.6 - 0.0 - - - - - - -
25/07:00pm 16.0 NE 4 5 1016.5 - 0.0 - - - - - - -
25/06:30pm 15.2 ENE 3 4 1016.1 - 0.0 - - - - - - -
25/06:00pm 16.2 ENE 4 5 1016.1 - 0.0 - - - - - - -
25/05:30pm 17.4 ENE 5 6 1015.9 - 0.0 - - - - - - -
25/05:00pm 19.8 E 5 7 1015.7 - 0.0 - - - - - - -
25/04:30pm 21.2 E 6 8 1015.5 - 0.0 - - - - - - -
25/04:00pm 22.1 E 5 7 1015.6 - 0.0 - - - - - - -
25/03:30pm 22.5 E 6 7 1015.5 - 0.0 - - - - - - -
25/03:00pm 23.0 E 7 8 1015.5 - 0.0 - - - - - - -
25/02:30pm 23.4 E 6 8 1015.5 - 0.0 - - - - - - -
25/02:00pm 23.4 SE 5 7 1015.8 - 0.0 - - - - - - -
25/01:30pm 23.3 SE 5 6 1016.1 - 0.0 - - - - - - -
25/01:00pm 23.4 SE 5 7 1016.4 - 0.0 - - - - - - -
25/12:30pm 23.5 SSE 6 8 1016.4 - 0.0 - - - - - - -
25/12:00pm 23.1 SSE 4 6 1016.7 - 0.0 - - - - - - -
25/11:30am 22.4 SSE 5 6 1017.0 - 0.0 - - - - - - -
25/11:00am 22.3 SSE 4 5 1017.4 - 0.0 - - - - - - -
25/10:30am 21.3 SSE 4 5 1017.7 - 0.0 - - - - - - -
25/10:00am 21.3 W 4 4 1017.8 - 0.0 - - - - - - -
25/09:30am 20.2 W 3 4 1017.8 - 0.0 - - - - - - -
25/09:00am 18.3 W 4 5 1017.9 - 0.0 - - - - - - -
25/08:30am 16.7 WSW 3 5 1017.8 - 0.0 - - - - - - -

Other Formats:

Comma delimited format used in spreadsheet applications
http://www.bom.gov.au/fwo/IDQ60701/IDQ60701.94580.axf

JavaScript Object Notation format (JSON) in row-major order
http://www.bom.gov.au/fwo/IDQ60701/IDQ60701.94580.json